Appley Bridge, United Kingdom
Current Conditions -  °F | °C
As of 8:50 PM on Sunday 21 Dec 2014 (Local Time) from EGNH Reporting Station
Overcast Overcast  
Wind Chill: 11°   Ceiling: 400
Heat Index: 11°   Visibility: 6mi
Dew Point: 10°   Wind: 28mph
Humidity: 94%   Direction: 230°SW
Pressure: 29.94"   Gusts: NA
Location:  53.58°N, 2.72°W
Report Text: EGNH 212050Z 23024KT 9999 OVC004 11/10 Q1014
Loading
Personal Weather Stations






























Interactive Weather Map New forecast layout! Learn more

10-Day Weather Forecast

Advertisements
Track Severe Weather on mobile